Time;durP1;ratioP1;P1;durP2;ratioP2;P2;SDS_P1;SDS_P2;PMS_P1;PMS_P2;Temp;Humidity;BMP_temperature;BMP_pressure;BME280_temperature;BME280_humidity;BME280_pressure;Samples;Min_cycle;Max_cycle;Signal;HPM_P1;HPM_P2
2021/06/18 00:01:56;;;;;;;6.63;1.95;;;;;;;18.63;74.11;93661.59;5136358;27;20196;-78
2021/06/18 00:04:23;;;;;;;2.15;1.65;;;;;;;18.52;74.67;93663.38;5135540;27;20691;-77
2021/06/18 00:06:49;;;;;;;3.67;1.90;;;;;;;18.42;75.13;93658.81;5136054;27;20224;-77
2021/06/18 00:09:16;;;;;;;2.83;1.98;;;;;;;18.36;75.03;93662.44;5135919;27;20278;-78
2021/06/18 00:11:42;;;;;;;2.60;2.10;;;;;;;18.18;74.88;93662.81;5135993;27;20224;-77
2021/06/18 00:14:09;;;;;;;6.80;2.17;;;;;;;18.05;74.50;93671.94;5135649;27;20204;-78
2021/06/18 00:16:35;;;;;;;2.78;2.00;;;;;;;17.87;75.27;93665.97;5136077;27;20204;-77
2021/06/18 00:19:03;;;;;;;4.10;1.90;;;;;;;17.76;75.80;93675.56;5135771;27;20674;-78
2021/06/18 00:21:30;;;;;;;3.42;1.95;;;;;;;17.71;76.72;93666.81;5134688;27;20646;-76
2021/06/18 00:23:57;;;;;;;5.03;2.25;;;;;;;17.65;76.85;93658.03;5135770;27;20203;-78
2021/06/18 00:26:24;;;;;;;2.88;2.08;;;;;;;17.58;77.18;93657.41;5135524;27;20583;-77
2021/06/18 00:28:51;;;;;;;3.28;1.80;;;;;;;17.53;78.14;93654.72;5135699;27;20212;-78
2021/06/18 00:31:17;;;;;;;5.90;1.90;;;;;;;17.55;77.91;93655.25;5135680;27;20207;-77
2021/06/18 00:33:44;;;;;;;2.92;1.80;;;;;;;17.60;78.30;93655.31;5135690;27;20197;-76
2021/06/18 00:36:12;;;;;;;7.45;2.10;;;;;;;17.78;74.54;93648.13;5135413;27;20291;-77
2021/06/18 00:38:38;;;;;;;2.60;1.80;;;;;;;17.63;75.47;93654.03;5135550;27;20201;-76
2021/06/18 00:41:05;;;;;;;4.18;2.20;;;;;;;17.60;73.98;93660.59;5135353;27;20196;-76
2021/06/18 00:43:31;;;;;;;3.55;2.20;;;;;;;17.43;75.43;93665.16;5135510;27;20197;-77
2021/06/18 00:45:58;;;;;;;5.38;2.10;;;;;;;17.37;74.72;93664.31;5135439;27;20203;-77
2021/06/18 00:48:26;;;;;;;4.57;1.80;;;;;;;17.21;75.18;93668.56;5135089;27;20207;-77
2021/06/18 00:50:53;;;;;;;2.63;1.80;;;;;;;17.10;76.24;93666.84;5135090;27;20256;-77
2021/06/18 00:53:21;;;;;;;3.70;2.10;;;;;;;17.02;76.25;93676.78;5135189;27;20200;-77
2021/06/18 00:55:48;;;;;;;3.70;1.63;;;;;;;16.96;76.15;93676.94;5134910;27;20235;-77
2021/06/18 00:58:15;;;;;;;3.88;2.28;;;;;;;16.96;76.91;93683.00;5134962;27;20651;-77
2021/06/18 01:00:41;;;;;;;4.07;2.08;;;;;;;17.00;75.90;93684.13;5134233;27;20541;-77
2021/06/18 01:03:09;;;;;;;5.80;2.30;;;;;;;17.11;74.21;93686.91;5134823;27;20205;-77
2021/06/18 01:05:37;;;;;;;3.55;2.03;;;;;;;17.27;74.49;93683.44;5134820;27;20201;-78
2021/06/18 01:08:11;;;;;;;3.30;1.90;;;;;;;17.37;73.68;93691.47;5134836;27;20202;-77
2021/06/18 01:10:50;;;;;;;4.55;1.98;;;;;;;17.22;81.66;93688.66;5135017;27;20229;-77
2021/06/18 01:13:45;;;;;;;2.95;2.00;;;;;;;17.02;77.79;93697.88;5134943;27;20208;-76
2021/06/18 01:16:16;;;;;;;4.22;2.35;;;;;;;17.00;77.37;93702.59;5134904;27;20257;-77
2021/06/18 01:18:47;;;;;;;6.57;2.47;;;;;;;16.94;78.44;93695.66;5134749;27;20644;-78
2021/06/18 01:21:21;;;;;;;6.80;2.20;;;;;;;16.90;79.62;93699.00;5134937;27;20200;-77
2021/06/18 01:23:55;;;;;;;3.20;1.77;;;;;;;16.80;80.72;93699.63;5135127;27;20246;-76
2021/06/18 01:26:36;;;;;;;4.20;2.10;;;;;;;16.73;84.36;93704.25;5134407;27;20263;-77
2021/06/18 01:29:05;;;;;;;6.65;2.60;;;;;;;16.67;86.34;93705.22;5134304;27;20207;-78
2021/06/18 01:31:37;;;;;;;3.92;2.28;;;;;;;16.67;86.39;93694.66;5134616;27;20323;-76
2021/06/18 01:34:10;;;;;;;4.15;2.50;;;;;;;16.83;82.62;93701.78;5134370;27;20201;-76
2021/06/18 01:36:38;;;;;;;4.38;3.33;;;;;;;16.91;82.15;93700.59;5134286;27;20683;-77
2021/06/18 01:39:06;;;;;;;5.10;2.08;;;;;;;16.92;79.94;93689.81;5134426;27;20281;-77
2021/06/18 01:41:33;;;;;;;3.95;2.28;;;;;;;16.99;79.27;93698.34;5134043;27;20193;-78
2021/06/18 01:44:02;;;;;;;3.63;2.40;;;;;;;17.04;79.79;93694.19;5134403;27;20567;-77
2021/06/18 01:46:34;;;;;;;5.10;2.50;;;;;;;17.01;81.17;93693.63;5134295;27;20197;-75
2021/06/18 01:49:07;;;;;;;4.00;2.40;;;;;;;17.05;80.12;93687.88;5134191;27;20203;-78
2021/06/18 01:51:34;;;;;;;3.50;2.20;;;;;;;17.05;80.44;93686.03;5133960;27;20611;-76
2021/06/18 01:54:03;;;;;;;5.40;2.75;;;;;;;17.00;84.15;93678.88;5134211;27;20204;-76
2021/06/18 01:56:33;;;;;;;9.10;2.83;;;;;;;16.83;86.78;93678.03;5134109;27;20288;-76
2021/06/18 01:59:02;;;;;;;8.55;2.40;;;;;;;16.73;85.20;93672.63;5134115;27;20263;-76
2021/06/18 02:01:34;;;;;;;5.18;2.75;;;;;;;16.64;84.91;93661.69;5133941;27;20204;-76
2021/06/18 02:04:01;;;;;;;3.72;2.78;;;;;;;16.61;85.63;93659.53;5133844;27;20678;-76
2021/06/18 02:06:29;;;;;;;6.57;2.40;;;;;;;16.56;85.92;93662.09;5133245;27;20200;-76
2021/06/18 02:08:59;;;;;;;6.28;2.30;;;;;;;16.49;85.18;93654.34;5134080;27;20192;-76
2021/06/18 02:11:29;;;;;;;6.53;2.40;;;;;;;16.51;83.25;93654.91;5133943;27;20201;-77
2021/06/18 02:13:57;;;;;;;4.22;2.80;;;;;;;16.59;81.87;93648.44;5133871;28;20279;-79
2021/06/18 02:16:26;;;;;;;4.00;2.47;;;;;;;16.61;81.61;93641.88;5133904;28;20224;-78
2021/06/18 02:18:56;;;;;;;3.53;2.47;;;;;;;16.47;83.55;93651.16;5133697;28;20567;-77
2021/06/18 02:21:24;;;;;;;4.22;2.65;;;;;;;16.28;85.18;93643.47;5133452;28;20239;-78
2021/06/18 02:23:52;;;;;;;4.85;2.50;;;;;;;16.44;81.73;93649.00;5133872;28;20196;-78
2021/06/18 02:26:21;;;;;;;4.55;2.35;;;;;;;16.42;82.82;93651.88;5132462;28;20433;-79
2021/06/18 02:28:48;;;;;;;8.90;2.47;;;;;;;16.38;81.33;93665.75;5133825;28;20817;-77
2021/06/18 02:31:15;;;;;;;4.78;2.40;;;;;;;16.73;78.72;93693.72;5133629;28;20559;-77
2021/06/18 02:33:42;;;;;;;5.93;2.58;;;;;;;16.92;79.42;93697.72;5133653;28;20228;-77
2021/06/18 02:36:10;;;;;;;3.70;2.58;;;;;;;16.62;82.30;93692.75;5133702;28;20200;-77
2021/06/18 02:38:37;;;;;;;5.85;2.20;;;;;;;16.57;81.36;93685.56;5133899;28;20200;-77
2021/06/18 02:41:04;;;;;;;3.60;2.40;;;;;;;16.51;81.77;93688.38;5133460;28;20232;-77
2021/06/18 02:43:30;;;;;;;4.63;2.60;;;;;;;16.37;82.18;93690.50;5133631;28;20295;-77
2021/06/18 02:45:57;;;;;;;6.65;2.00;;;;;;;16.27;83.55;93688.50;5136257;27;20200;-77
2021/06/18 02:48:30;;;;;;;4.18;2.30;;;;;;;16.07;84.22;93697.66;5137416;27;20209;-78
2021/06/18 02:51:01;;;;;;;4.47;2.67;;;;;;;16.00;86.09;93696.19;5137583;27;20249;-77
2021/06/18 02:53:36;;;;;;;4.57;2.30;;;;;;;15.94;86.48;93697.13;5137593;27;20544;-77
2021/06/18 02:56:11;;;;;;;5.50;2.78;;;;;;;15.86;88.23;93685.16;5137474;27;20480;-77
2021/06/18 02:58:43;;;;;;;6.65;2.55;;;;;;;16.13;84.75;93693.25;5137305;27;20196;-78
2021/06/18 03:01:10;;;;;;;3.28;2.55;;;;;;;15.95;88.26;93685.56;5137201;27;20228;-78
2021/06/18 03:03:42;;;;;;;6.03;3.03;;;;;;;15.71;89.76;93696.94;5137261;27;20203;-77
2021/06/18 03:06:09;;;;;;;5.47;2.38;;;;;;;15.58;90.01;93699.06;5137127;27;20220;-77
2021/06/18 03:08:41;;;;;;;5.57;2.60;;;;;;;15.38;91.88;93694.97;5137303;27;20211;-77
2021/06/18 03:11:09;;;;;;;3.78;2.60;;;;;;;15.26;92.22;93705.53;5137049;27;20706;-78
2021/06/18 03:13:40;;;;;;;4.88;2.55;;;;;;;15.41;93.33;93699.78;5137057;27;20643;-77
2021/06/18 03:16:09;;;;;;;8.60;2.80;;;;;;;15.32;96.02;93701.16;5137242;27;20209;-77
2021/06/18 03:18:38;;;;;;;4.93;3.10;;;;;;;15.23;98.67;93713.06;5137101;27;20204;-79
2021/06/18 03:21:05;;;;;;;6.85;2.92;;;;;;;15.27;97.62;93720.28;5136848;27;20316;-79
2021/06/18 03:23:33;;;;;;;7.57;3.05;;;;;;;15.27;96.49;93732.63;5136850;27;20196;-78
2021/06/18 03:26:04;;;;;;;4.18;2.78;;;;;;;15.20;96.98;93734.56;5136605;27;20224;-78
2021/06/18 03:28:33;;;;;;;4.43;2.90;;;;;;;15.14;97.60;93731.84;5136794;27;20196;-78
2021/06/18 03:31:01;;;;;;;5.05;2.45;;;;;;;15.11;97.31;93734.91;5136679;27;20201;-78
2021/06/18 03:33:28;;;;;;;7.25;2.70;;;;;;;15.29;97.37;93730.56;5136708;27;20208;-78
2021/06/18 03:35:56;;;;;;;6.72;2.90;;;;;;;15.42;97.57;93735.59;5136666;27;20203;-77
2021/06/18 03:38:23;;;;;;;4.55;3.03;;;;;;;15.51;93.91;93721.03;5137031;27;20223;-78
2021/06/18 03:40:50;;;;;;;7.25;3.25;;;;;;;15.69;92.69;93733.25;5136703;27;20228;-77
2021/06/18 03:43:19;;;;;;;5.10;2.97;;;;;;;15.73;94.27;93746.72;5136689;27;20231;-77
2021/06/18 03:45:47;;;;;;;6.00;2.92;;;;;;;15.79;94.72;93745.03;5136577;27;20287;-79
2021/06/18 03:48:16;;;;;;;7.22;3.20;;;;;;;15.71;97.73;93741.69;5136556;27;20200;-78
2021/06/18 03:50:43;;;;;;;4.35;2.88;;;;;;;15.53;100.00;93750.53;5136286;27;20230;-78
2021/06/18 03:53:14;;;;;;;9.43;2.92;;;;;;;15.47;100.00;93735.69;5136304;27;20236;-77
2021/06/18 03:55:41;;;;;;;5.72;3.40;;;;;;;15.58;99.00;93735.91;5136493;27;20257;-77
2021/06/18 03:58:11;;;;;;;6.03;3.03;;;;;;;15.54;99.68;93744.25;5136480;27;20597;-78
2021/06/18 04:00:43;;;;;;;10.88;3.28;;;;;;;15.53;99.59;93729.47;5136211;27;20224;-78
2021/06/18 04:03:10;;;;;;;9.90;3.72;;;;;;;15.84;99.65;93740.66;5136204;27;20204;-78
2021/06/18 04:05:39;;;;;;;5.32;3.25;;;;;;;15.72;98.49;93738.03;5136286;27;20205;-77
2021/06/18 04:08:07;;;;;;;5.68;3.25;;;;;;;15.68;100.00;93741.38;5136106;27;20201;-79
2021/06/18 04:10:34;;;;;;;5.80;3.67;;;;;;;15.84;100.00;93742.50;5135853;27;20226;-78
2021/06/18 04:13:02;;;;;;;5.50;3.15;;;;;;;15.71;100.00;93746.16;5135694;27;20189;-78
2021/06/18 04:15:29;;;;;;;6.85;3.63;;;;;;;15.53;100.00;93749.75;5136001;27;20231;-77
2021/06/18 04:17:59;;;;;;;5.63;3.22;;;;;;;15.36;100.00;93760.19;5135818;27;20197;-77
2021/06/18 04:20:26;;;;;;;5.18;3.03;;;;;;;15.33;100.00;93760.63;5135998;27;20228;-77
2021/06/18 04:22:54;;;;;;;6.68;3.53;;;;;;;15.52;100.00;93754.22;5135932;27;20204;-78
2021/06/18 04:25:22;;;;;;;5.00;3.50;;;;;;;15.47;100.00;93759.38;5135695;27;20235;-80
2021/06/18 04:27:48;;;;;;;5.43;3.28;;;;;;;15.50;100.00;93761.56;5135776;27;20197;-78
2021/06/18 04:30:17;;;;;;;5.78;3.33;;;;;;;15.56;100.00;93761.66;5135557;27;20211;-78
2021/06/18 04:32:44;;;;;;;6.63;3.50;;;;;;;15.59;100.00;93766.44;5135806;27;20203;-77
2021/06/18 04:35:12;;;;;;;5.10;3.38;;;;;;;15.67;100.00;93760.81;5135773;27;20204;-77
2021/06/18 04:37:41;;;;;;;5.28;3.72;;;;;;;15.76;100.00;93774.47;5135345;27;20290;-76
2021/06/18 04:40:10;;;;;;;9.02;4.90;;;;;;;15.96;100.00;93768.81;5135417;27;20200;-79
2021/06/18 04:42:37;;;;;;;8.98;4.93;;;;;;;16.25;100.00;93765.16;5135471;27;20540;-79
2021/06/18 04:45:04;;;;;;;8.07;4.93;;;;;;;16.47;100.00;93764.47;5135280;27;20204;-78
2021/06/18 04:47:31;;;;;;;10.38;3.85;;;;;;;16.59;100.00;93767.03;5135371;27;20300;-77
2021/06/18 04:49:58;;;;;;;5.82;4.25;;;;;;;16.81;100.00;93775.06;5135335;27;20279;-76
2021/06/18 04:52:25;;;;;;;9.25;5.07;;;;;;;17.00;100.00;93776.44;5135183;27;20616;-79
2021/06/18 04:54:55;;;;;;;11.73;5.55;;;;;;;17.18;100.00;93775.38;5135097;27;20203;-78
2021/06/18 04:57:22;;;;;;;10.80;6.05;;;;;;;17.33;100.00;93771.38;5135030;27;20675;-78
2021/06/18 04:59:48;;;;;;;10.60;6.30;;;;;;;17.49;100.00;93769.78;5135297;27;20283;-78
2021/06/18 05:02:15;;;;;;;8.60;5.78;;;;;;;17.55;100.00;93768.78;5134757;27;20315;-77
2021/06/18 05:04:41;;;;;;;7.70;5.80;;;;;;;17.58;100.00;93763.00;5135004;27;20686;-77
2021/06/18 05:07:08;;;;;;;5.93;4.63;;;;;;;17.71;100.00;93767.94;5134462;27;20193;-77
2021/06/18 05:09:36;;;;;;;10.95;4.80;;;;;;;17.79;100.00;93763.28;5134747;27;20197;-78
2021/06/18 05:12:02;;;;;;;12.80;5.93;;;;;;;17.87;100.00;93758.41;5134743;27;20200;-77
2021/06/18 05:14:29;;;;;;;9.27;5.68;;;;;;;17.94;100.00;93743.16;5134000;27;20924;-77
2021/06/18 05:16:55;;;;;;;8.98;5.95;;;;;;;17.99;100.00;93731.84;5134612;27;20243;-77
2021/06/18 05:19:22;;;;;;;9.73;6.38;;;;;;;18.29;100.00;93727.94;5134772;27;20200;-77
2021/06/18 05:21:48;;;;;;;10.18;6.47;;;;;;;18.57;100.00;93732.16;5134533;27;20228;-78
2021/06/18 05:24:15;;;;;;;10.55;6.75;;;;;;;18.75;100.00;93732.84;5134399;27;20204;-79
2021/06/18 05:26:43;;;;;;;9.25;5.05;;;;;;;18.92;100.00;93740.66;5134224;27;20200;-79
2021/06/18 05:29:09;;;;;;;6.47;4.82;;;;;;;19.21;100.00;93736.63;5134371;27;20655;-78
2021/06/18 05:31:36;;;;;;;10.55;5.70;;;;;;;19.45;100.00;93741.56;5134565;27;20632;-79
2021/06/18 05:34:02;;;;;;;10.48;5.82;;;;;;;19.66;100.00;93752.28;5134548;27;20192;-78
2021/06/18 05:36:29;;;;;;;9.85;5.57;;;;;;;19.95;99.64;93750.84;5134216;27;20670;-78
2021/06/18 05:38:56;;;;;;;9.02;5.35;;;;;;;20.67;95.61;93750.25;5134217;27;20204;-77
2021/06/18 05:41:22;;;;;;;9.48;6.00;;;;;;;21.73;91.75;93749.63;5134439;27;20266;-78
2021/06/18 05:43:50;;;;;;;7.43;4.75;;;;;;;23.40;82.06;93748.13;5134381;27;20257;-77
2021/06/18 05:46:17;;;;;;;8.23;4.95;;;;;;;24.86;73.41;93754.94;5134211;27;20200;-78
2021/06/18 05:48:43;;;;;;;8.95;4.55;;;;;;;25.94;68.39;93747.00;5134125;27;20207;-79
2021/06/18 05:51:10;;;;;;;5.35;4.15;;;;;;;27.29;62.23;93746.50;5134129;27;20205;-78
2021/06/18 05:53:36;;;;;;;7.47;4.40;;;;;;;28.18;58.64;93743.94;5133954;27;20208;-79
2021/06/18 05:56:03;;;;;;;7.03;4.32;;;;;;;29.07;57.85;93744.50;5133807;27;20521;-80
2021/06/18 05:58:29;;;;;;;6.75;3.70;;;;;;;29.67;55.92;93747.44;5134216;27;20196;-79
2021/06/18 06:00:57;;;;;;;4.72;3.83;;;;;;;30.39;54.17;93745.75;5134038;27;20225;-78
2021/06/18 06:03:23;;;;;;;9.95;4.10;;;;;;;30.91;52.06;93741.91;5134043;27;20203;-79
2021/06/18 06:05:50;;;;;;;4.88;3.58;;;;;;;31.38;48.28;93737.38;5133854;27;20196;-79
2021/06/18 06:08:17;;;;;;;5.57;3.60;;;;;;;31.59;46.39;93726.53;5133765;27;20325;-81
2021/06/18 06:10:47;;;;;;;6.95;3.50;;;;;;;31.70;43.87;93731.19;5134108;27;20203;-80
2021/06/18 06:13:13;;;;;;;9.48;3.33;;;;;;;31.70;43.81;93739.28;5133908;27;20196;-80
2021/06/18 06:15:40;;;;;;;6.80;3.17;;;;;;;31.93;41.40;93746.97;5133946;28;20291;-79
2021/06/18 06:18:08;;;;;;;4.68;3.40;;;;;;;32.14;40.15;93756.91;5133262;28;20289;-79
2021/06/18 06:20:34;;;;;;;6.00;2.90;;;;;;;31.50;41.05;93750.91;5136028;27;20595;-80
2021/06/18 06:23:01;;;;;;;5.60;3.05;;;;;;;30.77;42.88;93738.66;5137953;27;20196;-79
2021/06/18 06:25:27;;;;;;;4.00;2.75;;;;;;;30.45;43.70;93730.19;5137919;27;20235;-79
2021/06/18 06:27:54;;;;;;;3.97;2.80;;;;;;;30.02;45.87;93725.78;5138170;27;20196;-79
2021/06/18 06:30:20;;;;;;;6.47;3.25;;;;;;;29.58;45.87;93730.50;5138207;27;20200;-79
2021/06/18 06:32:47;;;;;;;5.68;2.78;;;;;;;29.12;45.33;93730.91;5137646;27;20323;-79
2021/06/18 06:35:15;;;;;;;8.32;2.63;;;;;;;28.40;48.00;93748.41;5137784;27;20288;-80
2021/06/18 06:37:42;;;;;;;13.35;3.28;;;;;;;26.47;51.16;93735.75;5138138;27;20253;-79
2021/06/18 06:40:10;;;;;;;3.85;2.92;;;;;;;26.55;52.53;93742.28;5137940;27;20563;-79
2021/06/18 06:42:37;;;;;;;6.03;3.15;;;;;;;26.85;52.54;93738.16;5137814;27;20200;-79
2021/06/18 06:45:04;;;;;;;5.07;3.13;;;;;;;25.95;53.56;93745.91;5137645;27;20556;-79
2021/06/18 06:47:31;;;;;;;5.95;2.90;;;;;;;26.33;56.02;93745.69;5137718;27;20281;-78
2021/06/18 06:49:57;;;;;;;7.20;3.35;;;;;;;26.42;58.39;93749.25;5137333;27;20197;-80
2021/06/18 06:52:25;;;;;;;5.78;3.30;;;;;;;26.39;61.00;93750.63;5137673;27;20234;-80
2021/06/18 06:54:55;;;;;;;4.22;3.47;;;;;;;26.56;57.29;93751.88;5137366;27;20640;-80
2021/06/18 06:57:21;;;;;;;4.95;3.03;;;;;;;26.73;56.22;93744.03;5137898;27;20232;-80
2021/06/18 06:59:48;;;;;;;4.15;3.00;;;;;;;26.29;57.67;93740.13;5137570;27;20615;-80
2021/06/18 07:02:14;;;;;;;6.50;3.38;;;;;;;26.32;56.15;93739.53;5137526;27;20203;-79
2021/06/18 07:04:41;;;;;;;7.22;3.00;;;;;;;25.79;57.42;93743.50;5137304;27;20200;-80
2021/06/18 07:07:08;;;;;;;5.20;2.90;;;;;;;24.77;57.78;93742.56;5137438;27;20254;-80
2021/06/18 07:09:38;;;;;;;7.07;3.53;;;;;;;24.59;58.20;93747.59;5137396;27;20283;-79
2021/06/18 07:12:06;;;;;;;4.80;3.00;;;;;;;24.59;55.92;93750.25;5136960;27;20232;-78
2021/06/18 07:14:32;;;;;;;6.40;3.28;;;;;;;24.48;59.66;93751.44;5136675;27;20209;-80
2021/06/18 07:16:59;;;;;;;5.80;3.08;;;;;;;24.50;56.21;93747.44;5136938;27;20201;-79
2021/06/18 07:19:25;;;;;;;5.75;2.72;;;;;;;24.60;57.14;93743.84;5136998;27;20235;-75
2021/06/18 07:21:52;;;;;;;3.05;2.65;;;;;;;24.63;58.64;93743.28;5136990;27;20197;-79
2021/06/18 07:24:18;;;;;;;6.45;2.85;;;;;;;24.84;57.67;93750.97;5137064;27;20218;-81
2021/06/18 07:26:49;;;;;;;6.65;2.90;;;;;;;24.83;58.60;93749.38;5136862;27;20235;-83
2021/06/18 07:29:16;;;;;;;8.98;3.25;;;;;;;24.85;55.72;93741.91;5136970;27;20215;-82
2021/06/18 07:31:43;;;;;;;9.13;3.13;;;;;;;24.87;55.77;93751.19;5136112;27;20709;-78
2021/06/18 07:34:12;;;;;;;4.65;3.08;;;;;;;24.94;56.13;93745.47;5136781;27;20644;-81
2021/06/18 07:36:39;;;;;;;4.93;3.00;;;;;;;24.95;54.88;93749.75;5136595;27;20555;-77
2021/06/18 07:39:08;;;;;;;3.92;2.90;;;;;;;25.09;56.97;93742.56;5136745;27;20211;-80
2021/06/18 07:41:37;;;;;;;5.90;3.10;;;;;;;25.27;56.76;93742.84;5136693;27;20205;-80
2021/06/18 07:44:08;;;;;;;4.45;2.83;;;;;;;25.36;57.12;93746.41;5132772;27;20625;-80
2021/06/18 07:46:34;;;;;;;5.97;2.88;;;;;;;25.61;57.63;93747.06;5116076;28;20201;-80
2021/06/18 07:49:01;;;;;;;5.47;3.00;;;;;;;25.73;55.90;93739.38;5115147;28;20201;-81
2021/06/18 07:51:28;;;;;;;5.03;3.00;;;;;;;25.85;55.95;93742.31;5119809;27;20231;-79
2021/06/18 07:53:54;;;;;;;5.70;3.28;;;;;;;25.88;56.67;93734.78;5136179;27;20617;-80
2021/06/18 07:56:25;;;;;;;4.90;2.83;;;;;;;25.96;58.13;93734.13;5136418;27;20196;-81
2021/06/18 07:58:52;;;;;;;10.60;3.10;;;;;;;25.84;57.43;93738.06;5136409;27;20712;-80
2021/06/18 08:01:21;;;;;;;6.78;3.40;;;;;;;25.58;54.57;93729.75;5136498;27;20204;-78
2021/06/18 08:03:48;;;;;;;4.18;3.05;;;;;;;25.48;55.30;93725.38;5134655;27;20788;-80
2021/06/18 08:06:16;;;;;;;5.00;2.95;;;;;;;25.35;55.83;93720.78;5135916;27;20559;-80
2021/06/18 08:08:43;;;;;;;6.15;2.90;;;;;;;25.44;55.94;93735.03;5135814;27;20207;-79
2021/06/18 08:11:10;;;;;;;5.97;3.10;;;;;;;25.54;56.77;93736.75;5135456;27;20208;-80
2021/06/18 08:13:39;;;;;;;9.88;3.20;;;;;;;25.63;55.75;93728.81;5136157;27;20203;-78
2021/06/18 08:16:06;;;;;;;7.82;3.08;;;;;;;25.78;52.31;93727.75;5136169;27;20204;-80
2021/06/18 08:18:36;;;;;;;3.47;2.70;;;;;;;25.84;55.92;93726.56;5136113;27;20205;-80
2021/06/18 08:21:03;;;;;;;5.22;3.28;;;;;;;25.82;53.80;93726.88;5135912;27;20204;-81
2021/06/18 08:23:30;;;;;;;9.07;2.90;;;;;;;25.87;53.63;93730.56;5135853;27;20226;-80
2021/06/18 08:25:57;;;;;;;5.97;3.05;;;;;;;26.02;53.31;93731.06;5135381;27;20260;-82
2021/06/18 08:28:24;;;;;;;6.15;3.05;;;;;;;26.24;53.25;93726.09;5135667;27;20197;-76
2021/06/18 08:30:53;;;;;;;4.70;3.00;;;;;;;26.58;55.67;93730.97;5135668;27;20234;-79
2021/06/18 08:33:20;;;;;;;5.32;2.72;;;;;;;26.69;54.14;93726.19;5135518;27;20548;-81
2021/06/18 08:35:48;;;;;;;8.07;2.88;;;;;;;26.80;54.00;93729.44;5135661;27;20211;-78
2021/06/18 08:38:18;;;;;;;4.13;2.70;;;;;;;26.67;50.26;93723.03;5135309;27;20207;-79
2021/06/18 08:40:45;;;;;;;8.48;2.90;;;;;;;26.81;51.77;93731.81;5135815;27;20254;-81
2021/06/18 08:43:11;;;;;;;6.28;3.00;;;;;;;26.69;49.29;93731.56;5134770;27;20295;-80
2021/06/18 08:45:38;;;;;;;10.90;3.13;;;;;;;27.01;53.30;93721.69;5135120;27;20203;-80
2021/06/18 08:48:08;;;;;;;3.08;2.53;;;;;;;27.12;53.20;93728.41;5135370;27;20641;-78
2021/06/18 08:50:37;;;;;;;6.22;2.88;;;;;;;27.29;52.45;93733.09;5134987;27;20200;-77
2021/06/18 08:53:08;;;;;;;3.83;2.15;;;;;;;27.22;50.81;93728.16;5135332;27;20224;-78
2021/06/18 08:55:37;;;;;;;4.55;2.83;;;;;;;27.20;49.62;93733.03;5135457;27;20283;-77
2021/06/18 08:58:04;;;;;;;7.35;3.20;;;;;;;27.30;51.61;93732.81;5135274;27;20201;-78
2021/06/18 09:00:32;;;;;;;3.63;2.80;;;;;;;27.17;50.49;93733.63;5135022;27;20563;-79
2021/06/18 09:03:25;;;;;;;6.95;2.85;;;;;;;27.28;49.28;93736.88;5134911;27;20200;-77
2021/06/18 09:05:52;;;;;;;8.90;2.90;;;;;;;27.30;50.53;93735.47;5134883;27;20233;-77
2021/06/18 09:08:23;;;;;;;5.28;2.50;;;;;;;27.35;48.19;93734.56;5135141;27;20477;-77
2021/06/18 09:10:51;;;;;;;6.15;2.80;;;;;;;27.37;48.53;93731.59;5134917;27;20662;-78
2021/06/18 09:13:19;;;;;;;5.93;3.03;;;;;;;27.49;50.38;93729.13;5134671;27;20235;-77
2021/06/18 09:15:50;;;;;;;5.35;2.67;;;;;;;27.91;48.87;93732.28;5134037;27;20433;-76
2021/06/18 09:18:33;;;;;;;9.13;3.15;;;;;;;27.57;48.13;93723.00;5134918;27;20302;-78
2021/06/18 09:21:18;;;;;;;6.28;2.92;;;;;;;27.36;49.47;93724.63;5134814;27;20282;-78
2021/06/18 09:23:48;;;;;;;10.80;2.72;;;;;;;27.56;48.68;93724.09;5134850;27;20200;-77
2021/06/18 09:26:30;;;;;;;4.90;2.90;;;;;;;27.61;49.91;93717.81;5134089;27;20516;-79
2021/06/18 09:29:03;;;;;;;9.27;2.80;;;;;;;27.90;49.91;93725.34;5134486;27;20204;-78
2021/06/18 09:31:33;;;;;;;4.07;2.47;;;;;;;27.79;48.80;93724.03;5134570;27;20197;-77
2021/06/18 09:34:05;;;;;;;9.48;3.33;;;;;;;27.89;46.65;93723.75;5134342;27;20655;-76
2021/06/18 09:36:32;;;;;;;7.82;3.03;;;;;;;27.90;47.50;93722.66;5134310;27;20196;-77
2021/06/18 09:39:00;;;;;;;8.10;3.13;;;;;;;27.89;49.52;93726.44;5134571;27;20197;-78
2021/06/18 09:41:36;;;;;;;6.13;3.00;;;;;;;28.02;52.30;93716.72;5134464;27;20209;-77
2021/06/18 09:44:04;;;;;;;6.88;3.10;;;;;;;28.00;48.56;93725.09;5134666;27;20303;-78
2021/06/18 09:46:50;;;;;;;6.35;3.25;;;;;;;28.15;47.50;93718.50;5134294;27;20229;-80
2021/06/18 09:49:39;;;;;;;4.72;2.90;;;;;;;28.21;49.23;93714.56;5134088;27;20720;-78
2021/06/18 09:52:07;;;;;;;6.32;2.90;;;;;;;28.08;49.42;93722.72;5134097;27;20231;-78
2021/06/18 09:54:40;;;;;;;5.40;2.90;;;;;;;28.19;48.61;93718.66;5134137;27;20197;-77
2021/06/18 09:57:09;;;;;;;9.48;2.90;;;;;;;28.39;48.23;93711.91;5133766;27;20217;-75
2021/06/18 09:59:50;;;;;;;7.65;3.25;;;;;;;28.52;46.58;93718.25;5133936;27;20228;-76
2021/06/18 10:02:18;;;;;;;4.28;3.15;;;;;;;28.27;49.38;93717.91;5134231;27;20253;-79
2021/06/18 10:04:48;;;;;;;7.63;3.65;;;;;;;28.27;52.12;93720.56;5134115;27;20201;-79
2021/06/18 10:07:20;;;;;;;8.00;3.28;;;;;;;28.42;53.47;93709.38;5133346;27;20200;-76
2021/06/18 10:09:51;;;;;;;9.00;3.38;;;;;;;28.49;49.18;93700.06;5133905;27;20589;-78
2021/06/18 10:12:20;;;;;;;4.90;3.10;;;;;;;28.55;50.29;93701.50;5133791;27;20691;-78
2021/06/18 10:14:49;;;;;;;7.20;2.90;;;;;;;28.51;48.84;93711.28;5133814;27;20200;-76
2021/06/18 10:17:16;;;;;;;4.53;2.95;;;;;;;28.54;48.11;93700.69;5133885;27;20205;-77
2021/06/18 10:19:42;;;;;;;6.20;3.30;;;;;;;28.83;48.66;93704.69;5133919;28;20196;-79
2021/06/18 10:22:12;;;;;;;3.17;2.55;;;;;;;29.16;46.92;93701.47;5133889;28;20197;-78
2021/06/18 10:24:43;;;;;;;5.40;2.55;;;;;;;29.28;46.80;93698.19;5133659;28;20250;-78
2021/06/18 10:27:16;;;;;;;6.60;2.22;;;;;;;29.21;45.19;93703.25;5133932;28;20197;-80
2021/06/18 10:29:45;;;;;;;4.65;2.70;;;;;;;29.21;43.01;93703.25;5133760;28;20203;-79
2021/06/18 10:32:31;;;;;;;7.63;2.78;;;;;;;29.08;42.07;93696.94;5133657;28;20276;-80
2021/06/18 10:34:59;;;;;;;4.93;2.20;;;;;;;29.26;42.70;93703.88;5132670;28;20200;-79
2021/06/18 10:37:28;;;;;;;5.40;2.50;;;;;;;29.17;39.74;93703.09;5133563;28;20197;-80
2021/06/18 10:39:56;;;;;;;7.00;2.63;;;;;;;29.25;44.36;93702.28;5132758;27;20559;-80
2021/06/18 10:42:25;;;;;;;7.32;2.97;;;;;;;29.50;40.09;93697.94;5133189;28;20229;-80
2021/06/18 10:44:53;;;;;;;4.72;2.70;;;;;;;29.73;41.48;93700.41;5133661;28;20223;-80
2021/06/18 10:47:58;;;;;;;9.73;2.83;;;;;;;29.92;44.06;93696.53;5133011;28;20204;-81
2021/06/18 10:50:47;;;;;;;6.50;2.70;;;;;;;29.86;39.53;93691.34;5133454;28;20235;-80
2021/06/18 10:53:24;;;;;;;4.40;2.63;;;;;;;30.11;40.07;93688.84;5133274;28;20224;-79
2021/06/18 10:55:55;;;;;;;3.08;2.42;;;;;;;30.34;42.68;93688.53;5133483;28;20619;-80
2021/06/18 10:58:23;;;;;;;7.07;3.08;;;;;;;30.38;44.07;93679.50;5133637;28;20200;-79
2021/06/18 11:00:50;;;;;;;8.45;2.72;;;;;;;30.45;45.00;93676.28;5133290;28;20200;-80
2021/06/18 11:03:56;;;;;;;4.90;2.85;;;;;;;30.60;49.41;93673.00;5132256;28;20219;-81
2021/06/18 11:06:44;;;;;;;5.18;2.78;;;;;;;30.65;40.94;93673.91;5135063;27;20185;-80
2021/06/18 11:09:11;;;;;;;4.43;2.33;;;;;;;30.71;37.72;93673.38;5137118;27;20199;-79
2021/06/18 11:11:38;;;;;;;7.03;2.45;;;;;;;30.72;38.70;93676.88;5137364;27;20212;-80
2021/06/18 11:14:07;;;;;;;9.00;2.53;;;;;;;30.88;39.54;93675.13;5137224;27;20224;-79
2021/06/18 11:16:35;;;;;;;5.35;2.33;;;;;;;31.16;37.58;93672.69;5136548;27;20269;-79
2021/06/18 11:19:21;;;;;;;5.93;2.20;;;;;;;30.74;36.58;93672.72;5135280;27;20556;-79
2021/06/18 11:21:48;;;;;;;7.68;2.25;;;;;;;31.23;35.53;93672.13;5136287;27;20698;-80
2021/06/18 11:24:33;;;;;;;5.82;2.13;;;;;;;31.51;37.02;93682.31;5136697;27;20650;-80
2021/06/18 11:27:22;;;;;;;8.10;2.70;;;;;;;31.70;35.83;93663.69;5136129;27;20197;-79
2021/06/18 11:30:27;;;;;;;6.45;2.42;;;;;;;31.18;39.30;93667.72;5136804;27;20196;-79
2021/06/18 11:32:55;;;;;;;6.28;2.63;;;;;;;31.52;37.33;93671.19;5136649;27;20450;-80
2021/06/18 11:35:41;;;;;;;8.52;2.28;;;;;;;31.86;38.09;93663.81;5136736;27;20559;-80
2021/06/18 11:38:15;;;;;;;5.13;2.40;;;;;;;31.83;37.71;93669.88;5136809;27;20284;-80
2021/06/18 11:40:41;;;;;;;10.88;2.80;;;;;;;31.60;37.31;93669.53;5136983;27;20284;-80
2021/06/18 11:43:08;;;;;;;7.80;2.50;;;;;;;32.19;33.82;93672.91;5136621;27;20196;-79